sensor_id;sensor_type;location;lat;lon;timestamp;temperature;humidity
1704;DHT22;849;48.780;9.216;2023-04-19T00:00:37;14.20;99.90
1704;DHT22;849;48.780;9.216;2023-04-19T00:03:04;14.20;99.90
1704;DHT22;849;48.780;9.216;2023-04-19T00:05:30;14.10;99.90
1704;DHT22;849;48.780;9.216;2023-04-19T00:07:57;14.20;99.90
1704;DHT22;849;48.780;9.216;2023-04-19T00:10:23;14.20;99.90
1704;DHT22;849;48.780;9.216;2023-04-19T00:12:49;14.10;99.90
1704;DHT22;849;48.780;9.216;2023-04-19T00:15:15;13.90;99.90
1704;DHT22;849;48.780;9.216;2023-04-19T00:17:40;14.00;99.90
1704;DHT22;849;48.780;9.216;2023-04-19T00:20:07;13.80;99.90
1704;DHT22;849;48.780;9.216;2023-04-19T00:22:33;13.80;99.90
1704;DHT22;849;48.780;9.216;2023-04-19T00:24:59;13.90;99.90
1704;DHT22;849;48.780;9.216;2023-04-19T00:27:25;13.90;99.90
1704;DHT22;849;48.780;9.216;2023-04-19T00:29:50;13.80;99.90
1704;DHT22;849;48.780;9.216;2023-04-19T00:32:16;13.70;99.90
1704;DHT22;849;48.780;9.216;2023-04-19T00:34:42;13.80;99.90
1704;DHT22;849;48.780;9.216;2023-04-19T00:37:08;13.90;99.90
1704;DHT22;849;48.780;9.216;2023-04-19T00:39:34;13.90;99.90
1704;DHT22;849;48.780;9.216;2023-04-19T00:41:59;14.00;99.90
1704;DHT22;849;48.780;9.216;2023-04-19T00:44:25;13.90;99.90
1704;DHT22;849;48.780;9.216;2023-04-19T00:46:51;14.00;99.90
1704;DHT22;849;48.780;9.216;2023-04-19T00:49:19;13.90;99.90
1704;DHT22;849;48.780;9.216;2023-04-19T00:51:47;13.80;99.90
1704;DHT22;849;48.780;9.216;2023-04-19T00:54:14;13.80;99.90
1704;DHT22;849;48.780;9.216;2023-04-19T00:56:40;13.60;99.90
1704;DHT22;849;48.780;9.216;2023-04-19T00:59:06;13.60;99.90
1704;DHT22;849;48.780;9.216;2023-04-19T01:01:32;13.80;99.90
1704;DHT22;849;48.780;9.216;2023-04-19T01:03:59;13.80;99.90
1704;DHT22;849;48.780;9.216;2023-04-19T01:06:26;13.80;99.90
1704;DHT22;849;48.780;9.216;2023-04-19T01:08:53;13.90;99.90
1704;DHT22;849;48.780;9.216;2023-04-19T01:11:18;13.80;99.90
1704;DHT22;849;48.780;9.216;2023-04-19T01:13:44;13.80;99.90
1704;DHT22;849;48.780;9.216;2023-04-19T01:16:10;13.70;99.90
1704;DHT22;849;48.780;9.216;2023-04-19T01:18:35;13.70;99.90
1704;DHT22;849;48.780;9.216;2023-04-19T01:21:03;13.80;99.90
1704;DHT22;849;48.780;9.216;2023-04-19T01:23:29;13.60;99.90
1704;DHT22;849;48.780;9.216;2023-04-19T01:25:55;13.50;99.90
1704;DHT22;849;48.780;9.216;2023-04-19T01:28:21;13.50;99.90
1704;DHT22;849;48.780;9.216;2023-04-19T01:30:46;13.70;99.90
1704;DHT22;849;48.780;9.216;2023-04-19T01:33:15;13.60;99.90
1704;DHT22;849;48.780;9.216;2023-04-19T01:35:41;13.70;99.90
1704;DHT22;849;48.780;9.216;2023-04-19T01:38:07;13.70;99.90
1704;DHT22;849;48.780;9.216;2023-04-19T01:40:33;13.50;99.90
1704;DHT22;849;48.780;9.216;2023-04-19T01:42:58;13.40;99.90
1704;DHT22;849;48.780;9.216;2023-04-19T01:45:24;13.50;99.90
1704;DHT22;849;48.780;9.216;2023-04-19T01:47:50;13.70;99.90
1704;DHT22;849;48.780;9.216;2023-04-19T01:50:16;13.80;99.90
1704;DHT22;849;48.780;9.216;2023-04-19T01:52:42;13.90;99.90
1704;DHT22;849;48.780;9.216;2023-04-19T01:55:07;13.90;99.90
1704;DHT22;849;48.780;9.216;2023-04-19T01:57:33;13.80;99.90
1704;DHT22;849;48.780;9.216;2023-04-19T02:00:00;13.70;99.90
1704;DHT22;849;48.780;9.216;2023-04-19T02:02:26;13.30;99.90
1704;DHT22;849;48.780;9.216;2023-04-19T02:04:51;13.30;99.90
1704;DHT22;849;48.780;9.216;2023-04-19T02:07:17;13.20;99.90
1704;DHT22;849;48.780;9.216;2023-04-19T02:09:43;13.30;99.90
1704;DHT22;849;48.780;9.216;2023-04-19T02:12:09;13.40;99.90
1704;DHT22;849;48.780;9.216;2023-04-19T02:14:34;13.50;99.90
1704;DHT22;849;48.780;9.216;2023-04-19T02:17:00;13.40;99.90
1704;DHT22;849;48.780;9.216;2023-04-19T02:19:26;13.30;99.90
1704;DHT22;849;48.780;9.216;2023-04-19T02:21:51;13.30;99.90
1704;DHT22;849;48.780;9.216;2023-04-19T02:24:25;13.50;99.90
1704;DHT22;849;48.780;9.216;2023-04-19T02:26:51;13.40;99.90
1704;DHT22;849;48.780;9.216;2023-04-19T02:29:17;13.60;99.90
1704;DHT22;849;48.780;9.216;2023-04-19T02:31:43;13.70;99.90
1704;DHT22;849;48.780;9.216;2023-04-19T02:34:11;13.80;99.90
1704;DHT22;849;48.780;9.216;2023-04-19T02:36:36;13.90;99.90
1704;DHT22;849;48.780;9.216;2023-04-19T02:39:02;14.00;99.90
1704;DHT22;849;48.780;9.216;2023-04-19T02:41:30;14.00;99.90
1704;DHT22;849;48.780;9.216;2023-04-19T02:43:55;14.10;99.90
1704;DHT22;849;48.780;9.216;2023-04-19T02:46:21;13.90;99.90
1704;DHT22;849;48.780;9.216;2023-04-19T02:48:46;13.80;99.90
1704;DHT22;849;48.780;9.216;2023-04-19T02:51:16;13.80;99.90
1704;DHT22;849;48.780;9.216;2023-04-19T02:53:42;13.60;99.90
1704;DHT22;849;48.780;9.216;2023-04-19T02:56:08;13.50;99.90
1704;DHT22;849;48.780;9.216;2023-04-19T02:58:33;13.50;99.90
1704;DHT22;849;48.780;9.216;2023-04-19T03:00:59;13.50;99.90
1704;DHT22;849;48.780;9.216;2023-04-19T03:03:25;13.60;99.90
1704;DHT22;849;48.780;9.216;2023-04-19T03:05:51;13.70;99.90
1704;DHT22;849;48.780;9.216;2023-04-19T03:08:17;13.70;99.90
1704;DHT22;849;48.780;9.216;2023-04-19T03:10:43;13.50;99.90
1704;DHT22;849;48.780;9.216;2023-04-19T03:13:08;13.30;99.90
1704;DHT22;849;48.780;9.216;2023-04-19T03:15:34;13.30;99.90
1704;DHT22;849;48.780;9.216;2023-04-19T03:18:00;13.40;99.90
1704;DHT22;849;48.780;9.216;2023-04-19T03:20:26;13.40;99.90
1704;DHT22;849;48.780;9.216;2023-04-19T03:23:10;13.50;99.90
1704;DHT22;849;48.780;9.216;2023-04-19T03:25:36;13.40;99.90
1704;DHT22;849;48.780;9.216;2023-04-19T03:28:02;13.40;99.90
1704;DHT22;849;48.780;9.216;2023-04-19T03:30:28;13.40;99.90
1704;DHT22;849;48.780;9.216;2023-04-19T03:32:53;13.50;99.90
1704;DHT22;849;48.780;9.216;2023-04-19T03:35:19;13.50;99.90
1704;DHT22;849;48.780;9.216;2023-04-19T03:37:45;13.50;99.90
1704;DHT22;849;48.780;9.216;2023-04-19T03:40:11;13.50;99.90
1704;DHT22;849;48.780;9.216;2023-04-19T03:42:36;13.50;99.90
1704;DHT22;849;48.780;9.216;2023-04-19T03:45:02;13.40;99.90
1704;DHT22;849;48.780;9.216;2023-04-19T03:47:28;13.30;99.90
1704;DHT22;849;48.780;9.216;2023-04-19T03:49:54;13.10;99.90
1704;DHT22;849;48.780;9.216;2023-04-19T03:52:19;13.20;99.90
1704;DHT22;849;48.780;9.216;2023-04-19T03:54:45;13.30;99.90
1704;DHT22;849;48.780;9.216;2023-04-19T03:57:12;13.40;99.90
1704;DHT22;849;48.780;9.216;2023-04-19T03:59:38;13.40;99.90
1704;DHT22;849;48.780;9.216;2023-04-19T04:02:05;13.30;99.90
1704;DHT22;849;48.780;9.216;2023-04-19T04:04:31;13.30;99.90
1704;DHT22;849;48.780;9.216;2023-04-19T04:06:56;13.30;99.90
1704;DHT22;849;48.780;9.216;2023-04-19T04:09:22;13.30;99.90
1704;DHT22;849;48.780;9.216;2023-04-19T04:11:47;13.20;99.90
1704;DHT22;849;48.780;9.216;2023-04-19T04:14:13;13.10;99.90
1704;DHT22;849;48.780;9.216;2023-04-19T04:16:39;13.10;99.90
1704;DHT22;849;48.780;9.216;2023-04-19T04:19:04;12.80;99.90
1704;DHT22;849;48.780;9.216;2023-04-19T04:21:30;12.70;99.90
1704;DHT22;849;48.780;9.216;2023-04-19T04:23:56;12.70;99.90
1704;DHT22;849;48.780;9.216;2023-04-19T04:26:22;12.70;99.90
1704;DHT22;849;48.780;9.216;2023-04-19T04:28:51;12.80;99.90
1704;DHT22;849;48.780;9.216;2023-04-19T04:31:16;13.00;99.90
1704;DHT22;849;48.780;9.216;2023-04-19T04:33:45;13.20;99.90
1704;DHT22;849;48.780;9.216;2023-04-19T04:36:11;13.30;99.90
1704;DHT22;849;48.780;9.216;2023-04-19T04:38:36;13.30;99.90
1704;DHT22;849;48.780;9.216;2023-04-19T04:41:02;13.10;99.90
1704;DHT22;849;48.780;9.216;2023-04-19T04:43:27;12.80;99.90
1704;DHT22;849;48.780;9.216;2023-04-19T04:45:53;12.70;99.90
1704;DHT22;849;48.780;9.216;2023-04-19T04:48:20;12.70;99.90
1704;DHT22;849;48.780;9.216;2023-04-19T04:50:46;12.70;99.90
1704;DHT22;849;48.780;9.216;2023-04-19T04:53:12;12.70;99.90
1704;DHT22;849;48.780;9.216;2023-04-19T04:55:37;12.60;99.90
1704;DHT22;849;48.780;9.216;2023-04-19T04:58:03;12.70;99.90
1704;DHT22;849;48.780;9.216;2023-04-19T05:00:32;12.40;99.90
1704;DHT22;849;48.780;9.216;2023-04-19T05:02:58;12.50;99.90
1704;DHT22;849;48.780;9.216;2023-04-19T05:05:24;12.60;99.90
1704;DHT22;849;48.780;9.216;2023-04-19T05:07:49;12.60;99.90
1704;DHT22;849;48.780;9.216;2023-04-19T05:10:15;12.50;99.90
1704;DHT22;849;48.780;9.216;2023-04-19T05:12:41;12.40;99.90
1704;DHT22;849;48.780;9.216;2023-04-19T05:15:07;12.20;99.90
1704;DHT22;849;48.780;9.216;2023-04-19T05:17:33;12.30;99.90
1704;DHT22;849;48.780;9.216;2023-04-19T05:19:59;12.40;99.90
1704;DHT22;849;48.780;9.216;2023-04-19T05:22:25;12.50;99.90
1704;DHT22;849;48.780;9.216;2023-04-19T05:24:51;12.50;99.90
1704;DHT22;849;48.780;9.216;2023-04-19T05:27:17;12.40;99.90
1704;DHT22;849;48.780;9.216;2023-04-19T05:29:43;12.40;99.90
1704;DHT22;849;48.780;9.216;2023-04-19T05:32:09;12.50;99.90
1704;DHT22;849;48.780;9.216;2023-04-19T05:34:35;12.40;99.90
1704;DHT22;849;48.780;9.216;2023-04-19T05:37:02;12.40;99.90
1704;DHT22;849;48.780;9.216;2023-04-19T05:39:28;12.40;99.90
1704;DHT22;849;48.780;9.216;2023-04-19T05:41:53;12.40;99.90
1704;DHT22;849;48.780;9.216;2023-04-19T05:44:19;12.60;99.90
1704;DHT22;849;48.780;9.216;2023-04-19T05:46:45;12.70;99.90
1704;DHT22;849;48.780;9.216;2023-04-19T05:49:10;12.80;99.90
1704;DHT22;849;48.780;9.216;2023-04-19T05:51:36;12.90;99.90
1704;DHT22;849;48.780;9.216;2023-04-19T05:54:02;12.80;99.90
1704;DHT22;849;48.780;9.216;2023-04-19T05:56:28;12.90;99.90
1704;DHT22;849;48.780;9.216;2023-04-19T05:58:54;12.70;99.90
1704;DHT22;849;48.780;9.216;2023-04-19T06:01:23;12.40;99.90
1704;DHT22;849;48.780;9.216;2023-04-19T06:03:50;12.40;99.90
1704;DHT22;849;48.780;9.216;2023-04-19T06:06:18;12.40;99.90
1704;DHT22;849;48.780;9.216;2023-04-19T06:08:44;12.50;99.90
1704;DHT22;849;48.780;9.216;2023-04-19T06:11:10;12.30;99.90
1704;DHT22;849;48.780;9.216;2023-04-19T06:13:35;12.50;99.90
1704;DHT22;849;48.780;9.216;2023-04-19T06:16:02;12.80;99.90
1704;DHT22;849;48.780;9.216;2023-04-19T06:18:27;12.90;99.90
1704;DHT22;849;48.780;9.216;2023-04-19T06:20:53;12.80;99.90
1704;DHT22;849;48.780;9.216;2023-04-19T06:23:19;12.80;99.90
1704;DHT22;849;48.780;9.216;2023-04-19T06:25:45;12.70;99.90
1704;DHT22;849;48.780;9.216;2023-04-19T06:28:13;12.70;99.90
1704;DHT22;849;48.780;9.216;2023-04-19T06:30:39;12.90;99.90
1704;DHT22;849;48.780;9.216;2023-04-19T06:33:05;12.70;99.90
1704;DHT22;849;48.780;9.216;2023-04-19T06:35:31;12.60;99.90
1704;DHT22;849;48.780;9.216;2023-04-19T06:38:00;12.70;99.90
1704;DHT22;849;48.780;9.216;2023-04-19T06:40:26;13.00;99.90
1704;DHT22;849;48.780;9.216;2023-04-19T06:42:53;13.20;99.90
1704;DHT22;849;48.780;9.216;2023-04-19T06:45:18;13.30;99.90
1704;DHT22;849;48.780;9.216;2023-04-19T06:47:44;13.50;99.90
1704;DHT22;849;48.780;9.216;2023-04-19T06:50:10;13.40;99.90
1704;DHT22;849;48.780;9.216;2023-04-19T06:52:36;13.30;99.90
1704;DHT22;849;48.780;9.216;2023-04-19T06:55:01;13.20;99.90
1704;DHT22;849;48.780;9.216;2023-04-19T06:57:27;13.40;99.90
1704;DHT22;849;48.780;9.216;2023-04-19T06:59:54;13.50;99.90
1704;DHT22;849;48.780;9.216;2023-04-19T07:02:19;13.50;99.90
1704;DHT22;849;48.780;9.216;2023-04-19T07:04:45;13.80;99.90
1704;DHT22;849;48.780;9.216;2023-04-19T07:07:12;13.40;99.90
1704;DHT22;849;48.780;9.216;2023-04-19T07:09:38;13.20;99.90
1704;DHT22;849;48.780;9.216;2023-04-19T07:12:04;13.10;99.90
1704;DHT22;849;48.780;9.216;2023-04-19T07:14:30;13.10;99.90
1704;DHT22;849;48.780;9.216;2023-04-19T07:16:55;13.30;99.90
1704;DHT22;849;48.780;9.216;2023-04-19T07:19:21;13.40;99.90
1704;DHT22;849;48.780;9.216;2023-04-19T07:21:47;13.50;99.90
1704;DHT22;849;48.780;9.216;2023-04-19T07:24:13;13.00;99.90
1704;DHT22;849;48.780;9.216;2023-04-19T07:26:41;13.00;99.90
1704;DHT22;849;48.780;9.216;2023-04-19T07:29:07;13.00;99.90
1704;DHT22;849;48.780;9.216;2023-04-19T07:31:33;13.00;99.90
1704;DHT22;849;48.780;9.216;2023-04-19T07:33:58;13.30;99.90
1704;DHT22;849;48.780;9.216;2023-04-19T07:36:24;13.00;99.90
1704;DHT22;849;48.780;9.216;2023-04-19T07:38:50;12.90;99.90
1704;DHT22;849;48.780;9.216;2023-04-19T07:41:15;12.90;99.90
1704;DHT22;849;48.780;9.216;2023-04-19T07:43:42;13.10;99.90
1704;DHT22;849;48.780;9.216;2023-04-19T07:46:12;13.40;99.90
1704;DHT22;849;48.780;9.216;2023-04-19T07:48:38;13.50;99.90
1704;DHT22;849;48.780;9.216;2023-04-19T07:51:11;13.40;99.90
1704;DHT22;849;48.780;9.216;2023-04-19T07:53:38;13.30;99.90
1704;DHT22;849;48.780;9.216;2023-04-19T07:56:05;13.20;99.90
1704;DHT22;849;48.780;9.216;2023-04-19T07:58:31;13.40;99.90
1704;DHT22;849;48.780;9.216;2023-04-19T08:00:56;13.50;99.90
1704;DHT22;849;48.780;9.216;2023-04-19T08:03:22;13.50;99.90
1704;DHT22;849;48.780;9.216;2023-04-19T08:05:48;13.40;99.90
1704;DHT22;849;48.780;9.216;2023-04-19T08:08:13;13.30;99.90
1704;DHT22;849;48.780;9.216;2023-04-19T08:10:39;13.40;99.90
1704;DHT22;849;48.780;9.216;2023-04-19T08:13:05;13.40;99.90
1704;DHT22;849;48.780;9.216;2023-04-19T08:15:31;13.40;99.90
1704;DHT22;849;48.780;9.216;2023-04-19T08:17:57;13.50;99.90
1704;DHT22;849;48.780;9.216;2023-04-19T08:20:22;13.80;99.90
1704;DHT22;849;48.780;9.216;2023-04-19T08:22:48;13.90;99.90
1704;DHT22;849;48.780;9.216;2023-04-19T08:25:14;14.10;99.90
1704;DHT22;849;48.780;9.216;2023-04-19T08:27:40;14.30;99.90
1704;DHT22;849;48.780;9.216;2023-04-19T08:30:07;14.30;99.90
1704;DHT22;849;48.780;9.216;2023-04-19T08:32:32;14.00;99.90
1704;DHT22;849;48.780;9.216;2023-04-19T08:34:58;13.90;99.90
1704;DHT22;849;48.780;9.216;2023-04-19T08:37:25;13.90;99.90
1704;DHT22;849;48.780;9.216;2023-04-19T08:39:51;14.10;99.90
1704;DHT22;849;48.780;9.216;2023-04-19T08:42:17;14.30;99.90
1704;DHT22;849;48.780;9.216;2023-04-19T08:44:45;14.50;99.90
1704;DHT22;849;48.780;9.216;2023-04-19T08:47:12;14.30;99.90
1704;DHT22;849;48.780;9.216;2023-04-19T08:49:40;14.20;99.90
1704;DHT22;849;48.780;9.216;2023-04-19T08:52:08;14.00;99.90
1704;DHT22;849;48.780;9.216;2023-04-19T08:54:37;14.10;99.90
1704;DHT22;849;48.780;9.216;2023-04-19T08:57:04;14.20;99.90
1704;DHT22;849;48.780;9.216;2023-04-19T08:59:30;14.20;99.90
1704;DHT22;849;48.780;9.216;2023-04-19T09:02:01;14.40;99.90
1704;DHT22;849;48.780;9.216;2023-04-19T09:04:27;14.50;99.90
1704;DHT22;849;48.780;9.216;2023-04-19T09:06:53;14.50;99.90
1704;DHT22;849;48.780;9.216;2023-04-19T09:09:22;14.70;99.90
1704;DHT22;849;48.780;9.216;2023-04-19T09:11:48;14.70;99.90
1704;DHT22;849;48.780;9.216;2023-04-19T09:14:19;14.70;99.90
1704;DHT22;849;48.780;9.216;2023-04-19T09:16:45;14.80;99.90
1704;DHT22;849;48.780;9.216;2023-04-19T09:19:11;14.90;99.90
1704;DHT22;849;48.780;9.216;2023-04-19T09:21:37;15.00;99.90
1704;DHT22;849;48.780;9.216;2023-04-19T09:24:04;14.90;99.90
1704;DHT22;849;48.780;9.216;2023-04-19T09:26:30;14.80;99.90
1704;DHT22;849;48.780;9.216;2023-04-19T09:29:04;14.80;99.90
1704;DHT22;849;48.780;9.216;2023-04-19T09:31:34;14.90;99.90
1704;DHT22;849;48.780;9.216;2023-04-19T09:34:14;15.00;99.90
1704;DHT22;849;48.780;9.216;2023-04-19T09:36:40;14.90;99.90
1704;DHT22;849;48.780;9.216;2023-04-19T09:39:06;14.40;99.90
1704;DHT22;849;48.780;9.216;2023-04-19T09:41:32;14.50;99.90
1704;DHT22;849;48.780;9.216;2023-04-19T09:44:11;14.40;99.90
1704;DHT22;849;48.780;9.216;2023-04-19T09:46:40;14.60;99.90
1704;DHT22;849;48.780;9.216;2023-04-19T09:51:46;14.40;99.90
1704;DHT22;849;48.780;9.216;2023-04-19T09:54:13;14.30;99.90
1704;DHT22;849;48.780;9.216;2023-04-19T09:56:39;14.50;99.90
1704;DHT22;849;48.780;9.216;2023-04-19T09:59:06;14.60;99.90
1704;DHT22;849;48.780;9.216;2023-04-19T10:01:38;14.70;99.90
1704;DHT22;849;48.780;9.216;2023-04-19T10:04:04;14.50;99.90
1704;DHT22;849;48.780;9.216;2023-04-19T10:06:31;14.50;99.90
1704;DHT22;849;48.780;9.216;2023-04-19T10:09:01;14.30;99.90
1704;DHT22;849;48.780;9.216;2023-04-19T10:11:33;14.00;99.90
1704;DHT22;849;48.780;9.216;2023-04-19T10:14:07;14.20;99.90
1704;DHT22;849;48.780;9.216;2023-04-19T10:16:34;14.50;99.90
1704;DHT22;849;48.780;9.216;2023-04-19T10:19:02;14.90;99.90
1704;DHT22;849;48.780;9.216;2023-04-19T10:21:28;15.00;99.20
1704;DHT22;849;48.780;9.216;2023-04-19T10:23:55;15.10;98.30
1704;DHT22;849;48.780;9.216;2023-04-19T10:26:21;15.00;98.30
1704;DHT22;849;48.780;9.216;2023-04-19T10:28:47;14.80;98.00
1704;DHT22;849;48.780;9.216;2023-04-19T10:31:13;14.70;99.00
1704;DHT22;849;48.780;9.216;2023-04-19T10:33:40;14.70;99.20
1704;DHT22;849;48.780;9.216;2023-04-19T10:36:10;14.80;98.90
1704;DHT22;849;48.780;9.216;2023-04-19T10:38:38;15.00;99.90
1704;DHT22;849;48.780;9.216;2023-04-19T10:41:05;15.20;98.90
1704;DHT22;849;48.780;9.216;2023-04-19T10:43:37;15.30;98.60
1704;DHT22;849;48.780;9.216;2023-04-19T10:48:57;15.10;99.20
1704;DHT22;849;48.780;9.216;2023-04-19T10:51:31;15.10;99.20
1704;DHT22;849;48.780;9.216;2023-04-19T10:53:58;15.20;99.90
1704;DHT22;849;48.780;9.216;2023-04-19T11:01:35;14.80;99.90
1704;DHT22;849;48.780;9.216;2023-04-19T11:06:37;14.40;99.90
1704;DHT22;849;48.780;9.216;2023-04-19T11:09:03;14.00;99.90
1704;DHT22;849;48.780;9.216;2023-04-19T11:11:35;13.80;99.90
1704;DHT22;849;48.780;9.216;2023-04-19T11:14:02;14.00;99.90
1704;DHT22;849;48.780;9.216;2023-04-19T11:16:29;14.20;99.90
1704;DHT22;849;48.780;9.216;2023-04-19T11:18:54;14.40;99.90
1704;DHT22;849;48.780;9.216;2023-04-19T11:21:20;14.40;99.90
1704;DHT22;849;48.780;9.216;2023-04-19T11:23:48;14.40;99.90
1704;DHT22;849;48.780;9.216;2023-04-19T11:26:14;14.50;99.90
1704;DHT22;849;48.780;9.216;2023-04-19T11:28:40;14.50;99.90
1704;DHT22;849;48.780;9.216;2023-04-19T11:31:06;14.40;99.90
1704;DHT22;849;48.780;9.216;2023-04-19T11:33:35;14.20;99.90
1704;DHT22;849;48.780;9.216;2023-04-19T11:36:03;14.00;99.90
1704;DHT22;849;48.780;9.216;2023-04-19T11:38:35;13.70;99.90
1704;DHT22;849;48.780;9.216;2023-04-19T11:41:02;13.70;99.90
1704;DHT22;849;48.780;9.216;2023-04-19T11:43:34;13.90;99.90
1704;DHT22;849;48.780;9.216;2023-04-19T11:46:18;13.90;99.90
1704;DHT22;849;48.780;9.216;2023-04-19T11:48:51;13.90;99.90
1704;DHT22;849;48.780;9.216;2023-04-19T11:51:17;14.00;99.90
1704;DHT22;849;48.780;9.216;2023-04-19T11:53:43;14.10;99.90
1704;DHT22;849;48.780;9.216;2023-04-19T11:56:09;14.10;99.90
1704;DHT22;849;48.780;9.216;2023-04-19T11:58:45;13.90;99.90
1704;DHT22;849;48.780;9.216;2023-04-19T12:01:17;14.00;99.90
1704;DHT22;849;48.780;9.216;2023-04-19T12:03:47;14.00;99.90
1704;DHT22;849;48.780;9.216;2023-04-19T12:06:15;14.10;99.90
1704;DHT22;849;48.780;9.216;2023-04-19T12:08:46;14.00;99.90
1704;DHT22;849;48.780;9.216;2023-04-19T12:11:13;13.80;99.90
1704;DHT22;849;48.780;9.216;2023-04-19T12:13:39;13.80;99.90
1704;DHT22;849;48.780;9.216;2023-04-19T12:16:08;13.80;99.90
1704;DHT22;849;48.780;9.216;2023-04-19T12:18:51;13.70;99.90
1704;DHT22;849;48.780;9.216;2023-04-19T12:21:27;13.70;99.90
1704;DHT22;849;48.780;9.216;2023-04-19T12:23:55;13.80;99.90
1704;DHT22;849;48.780;9.216;2023-04-19T12:26:21;13.40;99.90
1704;DHT22;849;48.780;9.216;2023-04-19T12:28:46;13.40;99.90
1704;DHT22;849;48.780;9.216;2023-04-19T12:31:12;13.30;99.90
1704;DHT22;849;48.780;9.216;2023-04-19T12:33:38;13.40;99.90
1704;DHT22;849;48.780;9.216;2023-04-19T12:36:04;13.50;99.90
1704;DHT22;849;48.780;9.216;2023-04-19T12:38:29;13.50;99.90
1704;DHT22;849;48.780;9.216;2023-04-19T12:40:55;13.50;99.90
1704;DHT22;849;48.780;9.216;2023-04-19T12:43:20;13.50;99.90
1704;DHT22;849;48.780;9.216;2023-04-19T12:45:46;13.70;99.90
1704;DHT22;849;48.780;9.216;2023-04-19T12:48:12;13.70;99.90
1704;DHT22;849;48.780;9.216;2023-04-19T12:50:37;13.60;99.90
1704;DHT22;849;48.780;9.216;2023-04-19T12:53:03;13.70;99.90
1704;DHT22;849;48.780;9.216;2023-04-19T12:55:28;13.60;99.90
1704;DHT22;849;48.780;9.216;2023-04-19T12:57:54;13.50;99.90
1704;DHT22;849;48.780;9.216;2023-04-19T13:00:20;13.50;99.90
1704;DHT22;849;48.780;9.216;2023-04-19T13:02:46;13.20;99.90
1704;DHT22;849;48.780;9.216;2023-04-19T13:05:12;13.10;99.90
1704;DHT22;849;48.780;9.216;2023-04-19T13:07:38;13.20;99.90
1704;DHT22;849;48.780;9.216;2023-04-19T13:10:04;13.30;99.90
1704;DHT22;849;48.780;9.216;2023-04-19T13:12:30;13.50;99.90
1704;DHT22;849;48.780;9.216;2023-04-19T13:14:56;13.60;99.90
1704;DHT22;849;48.780;9.216;2023-04-19T13:17:22;13.60;99.90
1704;DHT22;849;48.780;9.216;2023-04-19T13:19:47;13.60;99.90
1704;DHT22;849;48.780;9.216;2023-04-19T13:22:13;13.40;99.90
1704;DHT22;849;48.780;9.216;2023-04-19T13:24:40;13.40;99.90
1704;DHT22;849;48.780;9.216;2023-04-19T13:27:05;13.30;99.90
1704;DHT22;849;48.780;9.216;2023-04-19T13:29:31;13.40;99.90
1704;DHT22;849;48.780;9.216;2023-04-19T13:31:57;13.30;99.90
1704;DHT22;849;48.780;9.216;2023-04-19T13:34:23;13.30;99.90
1704;DHT22;849;48.780;9.216;2023-04-19T13:36:48;13.50;99.90
1704;DHT22;849;48.780;9.216;2023-04-19T13:39:14;13.60;99.90
1704;DHT22;849;48.780;9.216;2023-04-19T13:41:40;13.70;99.90
1704;DHT22;849;48.780;9.216;2023-04-19T13:44:06;14.00;99.90
1704;DHT22;849;48.780;9.216;2023-04-19T13:46:31;14.00;99.90
1704;DHT22;849;48.780;9.216;2023-04-19T13:48:57;14.00;99.90
1704;DHT22;849;48.780;9.216;2023-04-19T13:51:23;14.10;99.90
1704;DHT22;849;48.780;9.216;2023-04-19T13:53:49;14.00;99.90
1704;DHT22;849;48.780;9.216;2023-04-19T13:56:14;14.00;99.90
1704;DHT22;849;48.780;9.216;2023-04-19T13:58:40;14.00;99.90
1704;DHT22;849;48.780;9.216;2023-04-19T14:01:06;14.00;99.90
1704;DHT22;849;48.780;9.216;2023-04-19T14:03:31;14.10;99.90
1704;DHT22;849;48.780;9.216;2023-04-19T14:05:57;14.20;99.90
1704;DHT22;849;48.780;9.216;2023-04-19T14:08:23;14.30;99.90
1704;DHT22;849;48.780;9.216;2023-04-19T14:10:49;14.10;99.90
1704;DHT22;849;48.780;9.216;2023-04-19T14:13:15;13.80;99.90
1704;DHT22;849;48.780;9.216;2023-04-19T14:15:41;13.90;99.90
1704;DHT22;849;48.780;9.216;2023-04-19T14:18:06;14.00;99.90
1704;DHT22;849;48.780;9.216;2023-04-19T14:20:32;14.30;99.90
1704;DHT22;849;48.780;9.216;2023-04-19T14:22:58;14.30;99.90
1704;DHT22;849;48.780;9.216;2023-04-19T14:25:25;14.40;99.90
1704;DHT22;849;48.780;9.216;2023-04-19T14:27:50;14.40;99.90
1704;DHT22;849;48.780;9.216;2023-04-19T14:30:16;14.50;99.90
1704;DHT22;849;48.780;9.216;2023-04-19T14:32:42;14.60;99.90
1704;DHT22;849;48.780;9.216;2023-04-19T14:35:08;14.70;99.90
1704;DHT22;849;48.780;9.216;2023-04-19T14:37:36;14.60;99.90
1704;DHT22;849;48.780;9.216;2023-04-19T14:40:02;14.50;99.90
1704;DHT22;849;48.780;9.216;2023-04-19T14:42:27;14.70;99.90
1704;DHT22;849;48.780;9.216;2023-04-19T14:44:53;15.10;99.90
1704;DHT22;849;48.780;9.216;2023-04-19T14:47:19;15.30;99.90
1704;DHT22;849;48.780;9.216;2023-04-19T14:49:45;15.30;99.90
1704;DHT22;849;48.780;9.216;2023-04-19T14:52:11;15.20;99.90
1704;DHT22;849;48.780;9.216;2023-04-19T14:54:37;15.30;99.90
1704;DHT22;849;48.780;9.216;2023-04-19T14:57:02;15.30;99.90
1704;DHT22;849;48.780;9.216;2023-04-19T14:59:28;15.10;99.90
1704;DHT22;849;48.780;9.216;2023-04-19T15:01:54;15.10;99.90
1704;DHT22;849;48.780;9.216;2023-04-19T15:04:20;15.10;99.90
1704;DHT22;849;48.780;9.216;2023-04-19T15:06:45;15.00;99.90
1704;DHT22;849;48.780;9.216;2023-04-19T15:09:11;14.90;99.90
1704;DHT22;849;48.780;9.216;2023-04-19T15:11:37;14.80;99.90
1704;DHT22;849;48.780;9.216;2023-04-19T15:14:03;14.70;99.90
1704;DHT22;849;48.780;9.216;2023-04-19T15:16:28;14.80;99.90
1704;DHT22;849;48.780;9.216;2023-04-19T15:18:54;14.70;99.90
1704;DHT22;849;48.780;9.216;2023-04-19T15:21:21;14.80;99.90
1704;DHT22;849;48.780;9.216;2023-04-19T15:23:47;14.90;99.90
1704;DHT22;849;48.780;9.216;2023-04-19T15:26:13;14.90;99.90
1704;DHT22;849;48.780;9.216;2023-04-19T15:28:39;14.90;99.90
1704;DHT22;849;48.780;9.216;2023-04-19T15:31:06;15.00;99.90
1704;DHT22;849;48.780;9.216;2023-04-19T15:33:33;15.00;99.90
1704;DHT22;849;48.780;9.216;2023-04-19T15:35:59;14.90;99.90
1704;DHT22;849;48.780;9.216;2023-04-19T15:38:27;14.80;99.90
1704;DHT22;849;48.780;9.216;2023-04-19T15:40:54;15.00;99.90
1704;DHT22;849;48.780;9.216;2023-04-19T15:43:21;15.20;99.90
1704;DHT22;849;48.780;9.216;2023-04-19T15:45:47;15.40;99.90
1704;DHT22;849;48.780;9.216;2023-04-19T15:48:12;15.70;99.90
1704;DHT22;849;48.780;9.216;2023-04-19T15:50:38;16.20;99.90
1704;DHT22;849;48.780;9.216;2023-04-19T15:53:05;16.60;99.90
1704;DHT22;849;48.780;9.216;2023-04-19T15:55:31;17.00;99.90
1704;DHT22;849;48.780;9.216;2023-04-19T15:57:58;17.10;99.90
1704;DHT22;849;48.780;9.216;2023-04-19T16:00:25;17.00;99.90
1704;DHT22;849;48.780;9.216;2023-04-19T16:02:52;17.50;98.60
1704;DHT22;849;48.780;9.216;2023-04-19T16:05:17;18.00;96.00
1704;DHT22;849;48.780;9.216;2023-04-19T16:07:44;17.80;94.20
1704;DHT22;849;48.780;9.216;2023-04-19T16:10:11;17.20;95.10
1704;DHT22;849;48.780;9.216;2023-04-19T16:12:37;16.80;95.50
1704;DHT22;849;48.780;9.216;2023-04-19T16:15:04;16.60;96.50
1704;DHT22;849;48.780;9.216;2023-04-19T16:17:30;16.60;97.30
1704;DHT22;849;48.780;9.216;2023-04-19T16:19:56;16.90;97.20
1704;DHT22;849;48.780;9.216;2023-04-19T16:22:22;16.70;96.40
1704;DHT22;849;48.780;9.216;2023-04-19T16:24:48;16.70;96.70